Time;durP1;ratioP1;P1;durP2;ratioP2;P2;SDS_P1;SDS_P2;PMS_P1;PMS_P2;Temp;Humidity;BMP_temperature;BMP_pressure;BME280_temperature;BME280_humidity;BME280_pressure;Samples;Min_cycle;Max_cycle;Signal;HPM_P1;HPM_P2
2023/05/08 00:02:24;;;;;;;2.38;2.10;;;;;;;18.30;50.44;93715.66;4988408;28;20046;-85
2023/05/08 00:04:50;;;;;;;2.65;2.45;;;;;;;18.30;50.35;93716.41;5004786;28;20049;-85
2023/05/08 00:07:15;;;;;;;2.83;2.50;;;;;;;18.29;50.12;93711.44;4988072;28;20053;-84
2023/05/08 00:09:40;;;;;;;2.33;2.13;;;;;;;18.28;50.11;93712.69;4988725;28;20048;-84
2023/05/08 00:12:06;;;;;;;2.55;2.05;;;;;;;18.29;50.19;93717.66;5003985;28;20045;-85
2023/05/08 00:14:31;;;;;;;2.78;2.42;;;;;;;18.29;49.79;93719.66;5004592;28;20507;-85
2023/05/08 00:16:57;;;;;;;2.85;2.55;;;;;;;18.29;49.78;93719.66;4988528;28;20072;-84
2023/05/08 00:19:22;;;;;;;3.25;2.83;;;;;;;18.28;49.85;93726.38;4987235;28;20049;-84
2023/05/08 00:21:47;;;;;;;2.85;2.35;;;;;;;18.29;49.84;93720.41;4973796;28;20159;-85
2023/05/08 00:24:13;;;;;;;2.63;2.35;;;;;;;18.28;49.90;93732.59;5006147;28;20045;-84
2023/05/08 00:26:38;;;;;;;2.78;2.42;;;;;;;18.29;49.81;93722.38;4969819;28;20033;-85
2023/05/08 00:29:04;;;;;;;2.60;2.25;;;;;;;18.29;49.81;93722.38;4986598;28;20030;-84
2023/05/08 00:31:29;;;;;;;2.78;2.42;;;;;;;18.27;49.94;93717.41;4998827;28;20050;-85
2023/05/08 00:33:54;;;;;;;2.70;2.42;;;;;;;18.27;50.04;93730.34;5006320;28;20386;-85
2023/05/08 00:36:20;;;;;;;2.92;2.35;;;;;;;18.26;49.80;93731.59;5005167;28;20041;-84
2023/05/08 00:38:46;;;;;;;2.58;2.38;;;;;;;18.25;49.73;93727.38;5006079;28;20060;-85
2023/05/08 00:41:11;;;;;;;2.45;2.00;;;;;;;18.28;49.78;93734.56;4992439;28;20041;-84
2023/05/08 00:43:38;;;;;;;3.17;2.35;;;;;;;18.24;49.86;93732.09;5005569;28;20381;-85
2023/05/08 00:46:04;;;;;;;2.85;2.65;;;;;;;18.24;49.73;93729.34;5001038;28;20045;-84
2023/05/08 00:48:30;;;;;;;2.50;2.25;;;;;;;18.27;49.50;93731.09;5005877;28;20042;-85
2023/05/08 00:50:56;;;;;;;3.60;2.53;;;;;;;18.24;49.49;93731.34;4979801;28;20523;-85
2023/05/08 00:53:21;;;;;;;4.22;2.80;;;;;;;18.25;49.40;93735.56;4990634;28;20042;-85
2023/05/08 00:55:50;;;;;;;2.67;2.13;;;;;;;18.21;49.65;93730.34;4976095;28;20091;-84
2023/05/08 00:58:16;;;;;;;2.53;2.28;;;;;;;18.24;49.88;93739.56;5009351;28;20045;-86
2023/05/08 01:00:41;;;;;;;3.33;2.60;;;;;;;18.25;49.62;93739.06;5009268;28;20480;-85
2023/05/08 01:03:07;;;;;;;3.13;2.42;;;;;;;18.25;49.54;93735.56;5010091;28;20385;-84
2023/05/08 01:05:32;;;;;;;3.30;2.38;;;;;;;18.22;49.69;93742.78;4998524;28;21261;-85
2023/05/08 01:07:57;;;;;;;3.92;2.58;;;;;;;18.22;49.48;93737.31;4973380;28;20229;-84
2023/05/08 01:10:23;;;;;;;3.30;2.50;;;;;;;18.22;49.44;93742.03;5006639;28;20057;-85
2023/05/08 01:13:02;;;;;;;3.35;2.65;;;;;;;18.20;49.67;93734.34;4995698;28;20046;-85
2023/05/08 01:15:40;;;;;;;2.33;2.10;;;;;;;18.21;49.51;93743.28;4992342;28;20471;-85
2023/05/08 01:18:16;;;;;;;2.97;2.60;;;;;;;18.20;49.77;93745.28;4997262;28;20288;-86
2023/05/08 01:20:45;;;;;;;2.60;2.08;;;;;;;18.20;49.73;93736.34;4996469;28;20037;-85
2023/05/08 01:23:37;;;;;;;3.00;2.58;;;;;;;18.20;49.67;93752.75;5009886;28;20080;-85
2023/05/08 01:26:10;;;;;;;3.00;2.45;;;;;;;18.21;49.77;93754.97;5014295;28;20033;-84
2023/05/08 01:28:50;;;;;;;3.28;2.58;;;;;;;18.21;49.36;93749.50;5029752;28;20033;-85
2023/05/08 01:31:40;;;;;;;2.53;2.33;;;;;;;18.21;49.49;93751.50;5029844;28;20038;-84
2023/05/08 01:34:09;;;;;;;3.05;2.15;;;;;;;18.19;49.44;93754.03;5028112;28;20042;-85
2023/05/08 01:36:56;;;;;;;2.90;2.42;;;;;;;18.20;49.60;93755.47;4996578;28;20033;-85
2023/05/08 01:39:27;;;;;;;3.13;2.83;;;;;;;18.19;49.69;93754.72;5028653;28;20092;-85
2023/05/08 01:41:57;;;;;;;2.92;2.50;;;;;;;18.18;49.46;93747.81;5030556;28;20459;-85
2023/05/08 01:44:25;;;;;;;2.92;2.50;;;;;;;18.20;49.62;93747.28;5012601;28;20029;-85
2023/05/08 01:46:50;;;;;;;2.70;2.47;;;;;;;18.20;49.45;93750.75;4998347;28;20087;-84
2023/05/08 01:49:33;;;;;;;2.47;2.28;;;;;;;18.21;49.60;93770.66;4992000;28;20038;-84
2023/05/08 01:52:02;;;;;;;2.72;2.28;;;;;;;18.16;49.82;93755.75;5017962;28;20038;-86
2023/05/08 01:54:29;;;;;;;3.28;2.65;;;;;;;18.19;49.34;93760.22;4996007;28;20060;-85
2023/05/08 01:56:55;;;;;;;3.05;2.63;;;;;;;18.18;49.17;93766.97;4995680;28;20079;-85
2023/05/08 01:59:22;;;;;;;2.90;2.58;;;;;;;18.16;49.26;93766.72;5011994;28;20033;-84
2023/05/08 02:01:48;;;;;;;3.15;2.38;;;;;;;18.17;49.24;93760.00;5014795;28;20088;-85
2023/05/08 02:04:14;;;;;;;3.13;2.50;;;;;;;18.17;49.30;93761.97;5011683;28;20120;-84
2023/05/08 02:06:39;;;;;;;2.72;2.53;;;;;;;18.17;49.47;93746.31;5020906;28;20052;-85
2023/05/08 02:09:06;;;;;;;2.60;2.40;;;;;;;18.19;49.46;93754.03;5031672;28;20438;-85
2023/05/08 02:11:31;;;;;;;2.55;2.35;;;;;;;18.17;49.02;93761.97;5014648;28;20072;-85
2023/05/08 02:13:57;;;;;;;2.58;2.30;;;;;;;18.18;49.66;93763.47;5003885;28;20037;-85
2023/05/08 02:16:23;;;;;;;2.20;2.00;;;;;;;18.20;49.39;93755.47;5010813;28;20049;-85
2023/05/08 02:18:51;;;;;;;2.60;2.25;;;;;;;18.19;48.99;93760.22;4995511;28;20033;-86
2023/05/08 02:21:16;;;;;;;3.03;1.98;;;;;;;18.18;49.34;93761.47;5011677;28;20035;-85
2023/05/08 02:23:42;;;;;;;3.25;2.50;;;;;;;18.19;49.61;93754.72;5011982;28;20092;-86
2023/05/08 02:26:08;;;;;;;3.38;2.70;;;;;;;18.16;49.23;93758.50;4994241;28;20037;-85
2023/05/08 02:28:33;;;;;;;2.70;2.50;;;;;;;18.14;49.29;93758.25;5012527;28;20027;-85
2023/05/08 02:30:58;;;;;;;2.90;2.45;;;;;;;18.13;49.28;93756.75;5030262;28;20037;-85
2023/05/08 02:33:24;;;;;;;2.83;2.42;;;;;;;18.17;49.12;93759.25;5010553;28;20025;-86
2023/05/08 02:35:49;;;;;;;2.88;2.30;;;;;;;18.13;49.29;93756.75;4995564;28;20528;-84
2023/05/08 02:38:15;;;;;;;3.00;2.60;;;;;;;18.15;49.14;93757.75;5010660;28;20045;-86
2023/05/08 02:40:43;;;;;;;3.03;2.60;;;;;;;18.12;49.42;93753.28;5010415;28;20033;-85
2023/05/08 02:43:08;;;;;;;2.40;2.17;;;;;;;18.13;49.24;93754.03;4992040;28;20052;-85
2023/05/08 02:45:38;;;;;;;3.33;2.90;;;;;;;18.15;49.10;93765.22;5007758;28;20046;-85
2023/05/08 02:48:09;;;;;;;2.73;2.27;;;;;;;18.12;49.30;93756.00;5010781;28;20042;-85
2023/05/08 02:50:38;;;;;;;2.63;2.40;;;;;;;18.11;49.30;93754.53;5010506;28;20354;-85
2023/05/08 02:53:07;;;;;;;3.13;2.67;;;;;;;18.15;49.14;93751.53;5011279;28;20045;-85
2023/05/08 02:55:48;;;;;;;2.90;2.60;;;;;;;18.13;49.30;93749.28;4992664;28;20041;-85
2023/05/08 02:58:34;;;;;;;3.13;2.58;;;;;;;18.12;49.34;93750.53;5030194;28;20067;-85
2023/05/08 03:01:05;;;;;;;2.92;2.30;;;;;;;18.10;49.42;93753.03;5033240;28;20408;-85
2023/05/08 03:03:41;;;;;;;3.05;2.65;;;;;;;18.09;49.30;93751.53;5018883;28;20038;-85
2023/05/08 03:06:11;;;;;;;2.40;2.20;;;;;;;18.11;49.12;93753.78;4994290;28;20107;-84
2023/05/08 03:08:36;;;;;;;2.40;2.13;;;;;;;18.11;49.12;93751.03;5010269;28;20032;-85
2023/05/08 03:11:11;;;;;;;2.67;2.35;;;;;;;18.11;49.17;93751.03;5027707;28;20033;-84
2023/05/08 03:13:37;;;;;;;2.60;2.15;;;;;;;18.10;49.33;93746.81;4995367;28;20044;-85
2023/05/08 03:16:03;;;;;;;2.90;2.60;;;;;;;18.10;49.33;93744.81;4992005;28;20033;-85
2023/05/08 03:18:34;;;;;;;2.67;2.10;;;;;;;18.11;48.75;93751.78;5010185;28;20127;-85
2023/05/08 03:20:59;;;;;;;3.60;2.60;;;;;;;18.11;48.84;93757.25;4994837;28;20081;-85
2023/05/08 03:23:25;;;;;;;3.75;2.58;;;;;;;18.10;49.18;93755.75;5010316;28;20045;-85
2023/05/08 03:25:51;;;;;;;3.22;2.38;;;;;;;18.09;49.51;93754.28;5010324;28;20041;-85
2023/05/08 03:28:16;;;;;;;2.88;2.35;;;;;;;18.10;49.59;93750.28;5018880;28;20033;-85
2023/05/08 03:30:42;;;;;;;8.88;2.65;;;;;;;18.11;49.61;93754.53;5010179;28;20099;-83
2023/05/08 03:33:07;;;;;;;6.35;2.55;;;;;;;18.19;49.57;93751.28;5011515;28;20045;-82
2023/05/08 03:35:36;;;;;;;9.05;3.20;;;;;;;18.19;49.13;93749.25;4990482;28;20057;-85
2023/05/08 03:38:02;;;;;;;7.18;5.13;;;;;;;18.21;49.13;93756.97;5007976;28;20038;-85
2023/05/08 03:40:29;;;;;;;46.63;32.63;;;;;;;18.17;49.66;93753.78;4993661;28;20061;-85
2023/05/08 03:42:55;;;;;;;70.07;52.60;;;;;;;18.24;49.25;93761.44;5004335;28;20056;-87
2023/05/08 03:45:20;;;;;;;9.45;8.35;;;;;;;18.23;49.56;93757.97;4994067;28;20049;-88
2023/05/08 03:47:46;;;;;;;6.88;5.35;;;;;;;18.26;49.80;93761.69;4994689;28;20088;-85
2023/05/08 03:50:12;;;;;;;36.38;18.20;;;;;;;18.25;49.63;93769.16;5010755;28;20041;-85
2023/05/08 03:52:37;;;;;;;14.43;9.35;;;;;;;18.18;49.58;93753.28;5001507;28;20045;-86
2023/05/08 03:55:03;;;;;;;15.52;6.05;;;;;;;18.20;49.66;93753.50;4984809;28;20149;-86
2023/05/08 03:57:34;;;;;;;7.80;5.30;;;;;;;18.23;49.52;93757.22;5000597;28;20052;-85
2023/05/08 04:00:05;;;;;;;44.47;12.15;;;;;;;18.24;49.62;93761.44;4990373;28;20047;-86
2023/05/08 04:02:40;;;;;;;59.33;12.40;;;;;;;18.26;49.49;93765.19;5009168;28;20052;-85
2023/05/08 04:05:13;;;;;;;53.83;14.77;;;;;;;18.23;49.56;93777.13;5023676;28;20452;-87
2023/05/08 04:07:44;;;;;;;107.03;28.08;;;;;;;18.14;47.86;93778.16;4988561;28;20423;-85
2023/05/08 04:10:17;;;;;;;108.93;27.42;;;;;;;18.01;47.07;93774.41;4998868;28;20034;-84
2023/05/08 04:12:55;;;;;;;60.72;22.77;;;;;;;17.96;46.65;93773.19;4994025;28;20034;-86
2023/05/08 04:15:24;;;;;;;66.95;25.90;;;;;;;17.89;45.86;93768.22;5018487;28;20046;-85
2023/05/08 04:17:52;;;;;;;63.92;29.20;;;;;;;17.83;45.48;93777.66;5008091;28;20038;-85
2023/05/08 04:20:21;;;;;;;97.85;31.50;;;;;;;17.80;44.97;93784.88;4989353;28;20042;-85
2023/05/08 04:22:47;;;;;;;105.65;36.30;;;;;;;17.72;44.57;93794.84;5005625;28;20107;-89
2023/05/08 04:25:14;;;;;;;178.20;44.20;;;;;;;17.74;44.39;93784.16;4985164;28;20120;-86
2023/05/08 04:27:39;;;;;;;150.60;43.40;;;;;;;17.69;44.56;93788.38;5001426;28;20037;-86
2023/05/08 04:30:05;;;;;;;135.25;34.45;;;;;;;17.59;44.15;93800.00;5001336;28;20129;-86
2023/05/08 04:32:32;;;;;;;118.97;33.97;;;;;;;17.66;44.16;93816.69;4999590;28;20108;-87
2023/05/08 04:34:57;;;;;;;106.95;31.65;;;;;;;17.56;43.89;93817.41;4991709;28;20057;-86
2023/05/08 04:37:27;;;;;;;109.30;30.08;;;;;;;17.57;44.09;93814.16;5026014;28;20033;-87
2023/05/08 04:39:53;;;;;;;157.32;41.03;;;;;;;17.60;43.29;93828.84;5027531;28;20037;-86
2023/05/08 04:42:20;;;;;;;158.38;40.63;;;;;;;17.55;43.96;93830.31;4993213;28;20045;-86
2023/05/08 04:44:46;;;;;;;119.82;34.42;;;;;;;17.52;43.60;93838.78;4991586;28;20041;-86
2023/05/08 04:47:12;;;;;;;173.50;45.10;;;;;;;17.50;43.93;93835.78;5018781;28;20037;-86
2023/05/08 04:49:38;;;;;;;132.05;41.08;;;;;;;17.50;43.44;93828.34;5021471;28;20133;-85
2023/05/08 04:52:03;;;;;;;127.70;39.75;;;;;;;17.47;43.64;93832.06;5018630;28;20585;-86
2023/05/08 04:54:32;;;;;;;134.30;39.33;;;;;;;17.54;43.39;93842.50;5005448;28;20060;-86
2023/05/08 04:56:58;;;;;;;131.10;33.33;;;;;;;17.44;43.11;93847.47;5027232;28;20040;-86
2023/05/08 04:59:24;;;;;;;93.25;31.77;;;;;;;17.31;43.39;93851.91;5002288;28;20041;-86
2023/05/08 05:01:50;;;;;;;102.57;32.10;;;;;;;17.37;43.38;93858.09;5004118;28;20118;-87
2023/05/08 05:04:17;;;;;;;109.53;29.08;;;;;;;17.34;43.87;93842.69;5008767;28;20034;-85
2023/05/08 05:06:42;;;;;;;99.90;28.85;;;;;;;17.40;43.94;93857.13;5023035;28;20408;-88
2023/05/08 05:09:09;;;;;;;98.38;29.92;;;;;;;17.45;43.71;93861.88;4996646;28;20566;-88
2023/05/08 05:11:34;;;;;;;123.75;41.05;;;;;;;17.48;43.80;93863.63;5005892;28;20052;-85
2023/05/08 05:14:00;;;;;;;135.00;34.70;;;;;;;17.52;44.00;93863.38;5010335;28;20049;-85
2023/05/08 05:16:27;;;;;;;125.82;36.92;;;;;;;17.65;43.62;93861.69;5026726;28;20072;-87
2023/05/08 05:18:53;;;;;;;159.98;40.78;;;;;;;17.61;44.08;93863.88;4994849;28;20042;-87
2023/05/08 05:21:18;;;;;;;128.27;40.75;;;;;;;17.60;44.26;93865.13;4976454;28;20180;-86
2023/05/08 05:23:44;;;;;;;125.07;39.08;;;;;;;17.62;44.34;93864.63;5008163;28;20045;-86
2023/05/08 05:26:10;;;;;;;114.03;36.63;;;;;;;17.69;44.43;93862.19;5003984;28;20041;-86
2023/05/08 05:28:42;;;;;;;131.30;40.28;;;;;;;17.69;44.67;93864.94;5006101;28;20058;-85
2023/05/08 05:31:08;;;;;;;113.75;38.38;;;;;;;17.73;44.78;93867.44;5013422;28;20105;-85
2023/05/08 05:33:34;;;;;;;124.03;44.05;;;;;;;17.80;44.41;93866.91;5011252;28;20329;-85
2023/05/08 05:35:59;;;;;;;111.80;43.13;;;;;;;17.78;44.36;93861.94;5025255;28;20060;-88
2023/05/08 05:38:25;;;;;;;160.07;48.35;;;;;;;17.74;44.46;93864.19;5020388;28;20091;-86
2023/05/08 05:40:50;;;;;;;140.75;44.85;;;;;;;17.74;45.17;93864.19;5010644;28;20083;-86
2023/05/08 05:43:15;;;;;;;178.13;53.10;;;;;;;17.76;44.95;93864.41;4991192;28;20339;-84
2023/05/08 05:45:41;;;;;;;138.65;47.88;;;;;;;17.80;45.15;93858.72;4995091;28;20423;-84
2023/05/08 05:48:06;;;;;;;131.95;40.90;;;;;;;17.79;44.96;93868.16;5025321;28;20038;-85
2023/05/08 05:50:32;;;;;;;97.43;36.92;;;;;;;17.81;45.05;93874.63;5009416;28;20063;-85
2023/05/08 05:52:57;;;;;;;134.82;45.30;;;;;;;17.83;45.39;93874.13;4994557;28;20037;-84
2023/05/08 05:55:23;;;;;;;133.25;42.78;;;;;;;17.84;45.00;93872.91;4993404;28;20041;-84
2023/05/08 05:57:48;;;;;;;111.50;39.78;;;;;;;17.84;45.32;93878.38;5009645;28;20049;-84
2023/05/08 06:00:15;;;;;;;144.70;52.95;;;;;;;17.91;45.42;93883.34;5024890;28;20091;-86
2023/05/08 06:02:40;;;;;;;198.63;93.78;;;;;;;17.89;45.41;93885.09;5028374;28;20057;-85
2023/05/08 06:05:06;;;;;;;159.82;71.10;;;;;;;18.00;45.83;93891.31;5028372;28;20040;-86
2023/05/08 06:07:32;;;;;;;174.07;95.78;;;;;;;17.98;45.72;93890.31;5028680;28;20171;-85
2023/05/08 06:09:57;;;;;;;95.97;43.55;;;;;;;18.03;45.67;93890.31;4996807;28;20043;-84
2023/05/08 06:12:23;;;;;;;95.60;40.00;;;;;;;18.04;45.58;93882.84;5018738;28;20091;-82
2023/05/08 06:14:50;;;;;;;222.77;133.63;;;;;;;18.03;45.34;93898.53;5021522;28;20060;-85
2023/05/08 06:17:16;;;;;;;148.98;86.53;;;;;;;18.06;45.85;93891.31;5023802;28;20292;-87
2023/05/08 06:19:41;;;;;;;102.60;46.10;;;;;;;18.10;45.34;93884.34;5018386;28;20578;-84
2023/05/08 06:22:07;;;;;;;97.25;46.83;;;;;;;18.04;45.65;93880.88;4992806;28;20026;-85
2023/05/08 06:24:34;;;;;;;88.72;46.95;;;;;;;18.05;45.55;93889.81;5001955;28;20034;-84
2023/05/08 06:26:59;;;;;;;91.65;45.83;;;;;;;18.06;45.34;93894.03;5029233;28;20037;-85
2023/05/08 06:29:25;;;;;;;116.63;55.08;;;;;;;18.02;45.30;93893.53;5027319;28;20045;-86
2023/05/08 06:31:50;;;;;;;111.13;53.55;;;;;;;18.05;45.72;93892.56;5011255;28;20041;-85
2023/05/08 06:34:15;;;;;;;96.20;51.85;;;;;;;18.04;45.84;93894.53;5046495;28;20416;-86
2023/05/08 06:36:41;;;;;;;110.13;57.15;;;;;;;18.05;45.54;93898.78;5003985;28;20046;-84
2023/05/08 06:39:06;;;;;;;150.95;78.45;;;;;;;18.06;45.33;93896.78;5017134;28;21537;-84
2023/05/08 06:41:32;;;;;;;139.55;73.15;;;;;;;18.03;45.54;93898.53;5002184;28;20049;-84
2023/05/08 06:43:57;;;;;;;128.18;66.53;;;;;;;18.09;45.67;93901.25;5012127;28;20152;-85
2023/05/08 06:46:23;;;;;;;164.77;80.43;;;;;;;18.07;45.53;93909.22;4994880;28;20041;-85
2023/05/08 06:48:48;;;;;;;167.23;85.28;;;;;;;18.06;45.75;93900.25;5041877;28;20041;-83
2023/05/08 06:51:13;;;;;;;160.90;89.55;;;;;;;18.09;45.45;93910.22;5008807;28;20053;-84
2023/05/08 06:53:39;;;;;;;167.30;92.72;;;;;;;18.09;45.95;93909.47;5009056;28;20049;-84
2023/05/08 06:56:05;;;;;;;187.60;99.97;;;;;;;18.06;45.61;93913.19;5008546;28;20417;-83
2023/05/08 06:58:31;;;;;;;161.02;90.43;;;;;;;18.07;45.90;93915.44;4984417;28;20175;-84
2023/05/08 07:00:58;;;;;;;189.60;109.57;;;;;;;18.06;45.76;93919.41;4995524;28;20044;-86
2023/05/08 07:03:23;;;;;;;195.85;109.38;;;;;;;18.12;45.64;93919.44;4993919;28;20853;-85
2023/05/08 07:05:49;;;;;;;204.85;112.60;;;;;;;18.09;45.34;93915.69;5007827;28;20022;-85
2023/05/08 07:08:14;;;;;;;195.50;111.00;;;;;;;18.13;45.34;93924.41;5016462;28;20377;-84
2023/05/08 07:10:40;;;;;;;201.23;111.55;;;;;;;18.13;45.54;93920.94;5012978;28;20144;-86
2023/05/08 07:13:05;;;;;;;205.13;107.97;;;;;;;18.14;45.52;93925.91;5024282;28;20061;-86
2023/05/08 07:15:31;;;;;;;199.07;110.95;;;;;;;18.18;45.47;93922.94;5019900;28;20033;-84
2023/05/08 07:17:57;;;;;;;197.50;108.47;;;;;;;18.13;45.56;93923.66;4996171;28;20289;-88
2023/05/08 07:20:23;;;;;;;184.30;104.18;;;;;;;18.14;45.73;93917.69;5011224;28;20049;-83
2023/05/08 07:22:53;;;;;;;178.32;104.05;;;;;;;18.13;45.73;93912.72;4996183;28;20104;-85
2023/05/08 07:25:23;;;;;;;187.48;113.45;;;;;;;18.13;45.72;93918.19;5024234;28;20132;-86
2023/05/08 07:27:48;;;;;;;174.50;106.25;;;;;;;18.15;45.83;93921.94;5026349;28;20046;-85
2023/05/08 07:30:14;;;;;;;245.98;135.77;;;;;;;18.14;45.94;93914.97;4986040;28;20048;-86
2023/05/08 07:32:40;;;;;;;219.65;118.85;;;;;;;18.15;45.55;93921.94;5037822;28;20041;-85
2023/05/08 07:35:08;;;;;;;227.77;118.32;;;;;;;18.22;45.41;93923.41;5010131;28;20025;-83
2023/05/08 07:37:34;;;;;;;392.73;155.15;;;;;;;18.17;46.10;93935.13;5011371;28;20585;-84
2023/05/08 07:39:59;;;;;;;300.33;136.50;;;;;;;18.17;45.79;93924.16;4997471;28;20041;-85
2023/05/08 07:42:25;;;;;;;280.83;130.88;;;;;;;18.15;45.83;93932.88;5029812;28;20480;-83
2023/05/08 07:44:50;;;;;;;273.90;131.10;;;;;;;18.17;45.35;93921.44;5046020;28;20458;-83
2023/05/08 07:47:15;;;;;;;244.48;129.70;;;;;;;18.17;45.82;93926.91;5025278;28;20094;-85
2023/05/08 07:49:41;;;;;;;228.65;127.18;;;;;;;18.21;45.69;93929.38;5021082;28;20048;-84
2023/05/08 07:52:06;;;;;;;246.32;132.20;;;;;;;18.23;45.80;93932.34;5030012;28;20037;-85
2023/05/08 07:54:32;;;;;;;265.23;143.05;;;;;;;18.26;45.66;93928.63;5013570;28;20497;-83
2023/05/08 07:56:57;;;;;;;261.20;141.85;;;;;;;18.26;45.78;93934.84;5020791;28;20040;-83
2023/05/08 07:59:22;;;;;;;259.08;135.55;;;;;;;18.23;45.94;93935.09;5015347;28;20046;-84
2023/05/08 08:01:48;;;;;;;244.20;140.05;;;;;;;18.21;45.50;93932.84;5029494;28;20507;-83
2023/05/08 08:04:14;;;;;;;246.40;140.07;;;;;;;18.26;45.68;93932.13;5006184;28;20041;-84
2023/05/08 08:06:39;;;;;;;228.30;130.68;;;;;;;18.29;46.10;93928.38;5028592;28;20045;-85
2023/05/08 08:09:05;;;;;;;241.73;135.10;;;;;;;18.27;45.85;93928.13;4990891;28;20041;-84
2023/05/08 08:11:30;;;;;;;244.60;134.77;;;;;;;18.28;45.85;93926.88;5038605;28;20056;-86
2023/05/08 08:13:56;;;;;;;265.65;143.77;;;;;;;18.30;45.92;93923.66;4994431;28;20065;-86
2023/05/08 08:16:21;;;;;;;240.73;136.27;;;;;;;18.30;45.97;93927.16;5009452;28;20042;-84
2023/05/08 08:18:47;;;;;;;247.05;135.80;;;;;;;18.31;45.90;93925.16;5023391;28;20111;-85
2023/05/08 08:21:12;;;;;;;246.57;142.68;;;;;;;18.34;45.97;93924.91;5030982;28;20034;-84
2023/05/08 08:23:38;;;;;;;257.25;146.68;;;;;;;18.30;45.95;93921.66;5011097;28;20042;-85
2023/05/08 08:26:03;;;;;;;236.88;128.70;;;;;;;18.35;46.28;93925.66;5007770;28;20038;-84
2023/05/08 08:28:29;;;;;;;248.30;141.75;;;;;;;18.35;46.06;93925.66;5013524;28;20053;-86
2023/05/08 08:30:54;;;;;;;238.77;137.38;;;;;;;18.37;45.91;93929.41;5012143;28;20045;-85
2023/05/08 08:33:20;;;;;;;279.30;143.85;;;;;;;18.34;46.20;93935.13;5029244;28;20059;-85
2023/05/08 08:35:45;;;;;;;241.57;132.82;;;;;;;18.37;46.04;93928.66;5006607;28;20507;-85
2023/05/08 08:38:11;;;;;;;255.98;135.30;;;;;;;18.37;45.92;93934.13;5005669;28;20052;-86
2023/05/08 08:40:40;;;;;;;261.33;143.40;;;;;;;18.37;45.82;93937.59;4994616;28;20052;-84
2023/05/08 08:43:06;;;;;;;264.65;144.60;;;;;;;18.38;45.97;93941.84;5022580;28;20112;-83
2023/05/08 08:45:31;;;;;;;260.70;145.00;;;;;;;18.40;45.97;93936.59;5010508;28;20058;-83
2023/05/08 08:48:00;;;;;;;253.85;137.27;;;;;;;18.40;46.00;93936.59;5000284;28;20098;-83
2023/05/08 08:50:26;;;;;;;274.55;144.70;;;;;;;18.40;45.84;93935.88;4991682;28;20037;-84
2023/05/08 08:53:07;;;;;;;263.60;139.55;;;;;;;18.43;46.14;93937.59;5024386;28;20064;-84
2023/05/08 08:55:33;;;;;;;271.30;119.63;;;;;;;18.33;44.05;93934.38;5008328;28;20049;-85
2023/05/08 08:58:31;;;;;;;230.02;108.00;;;;;;;18.28;44.29;93946.06;5027251;28;20186;-86
2023/05/08 09:00:59;;;;;;;218.13;110.35;;;;;;;18.17;43.94;93940.59;5009768;28;20444;-85
2023/05/08 09:03:24;;;;;;;217.27;102.72;;;;;;;18.10;43.58;93941.06;5008802;28;20045;-86
2023/05/08 09:05:50;;;;;;;188.57;85.65;;;;;;;18.20;43.32;93931.34;4992717;28;20045;-85
2023/05/08 09:08:19;;;;;;;130.25;53.65;;;;;;;18.11;42.44;93934.34;5008607;28;20034;-83
2023/05/08 09:10:45;;;;;;;122.90;60.85;;;;;;;18.00;42.33;93939.78;5012068;28;20041;-83
2023/05/08 09:13:10;;;;;;;97.35;48.67;;;;;;;18.00;42.12;93932.34;5026214;28;20045;-86
2023/05/08 09:15:36;;;;;;;95.93;47.45;;;;;;;18.02;42.18;93931.84;5022822;28;20042;-85
2023/05/08 09:18:01;;;;;;;96.07;46.17;;;;;;;18.07;42.71;93931.09;5009886;28;20156;-83
2023/05/08 09:20:27;;;;;;;87.18;45.55;;;;;;;18.10;42.71;93927.38;5009224;28;20833;-83
2023/05/08 09:22:53;;;;;;;150.98;65.68;;;;;;;18.15;43.23;93924.66;4994910;28;20044;-85
2023/05/08 09:25:18;;;;;;;141.70;65.53;;;;;;;18.17;43.11;93929.63;5027179;28;20041;-86
2023/05/08 09:27:44;;;;;;;149.50;71.32;;;;;;;18.23;43.27;93929.63;5013646;28;20042;-85
2023/05/08 09:30:11;;;;;;;142.98;71.57;;;;;;;18.25;43.39;93927.13;4996773;28;20053;-85
2023/05/08 09:32:38;;;;;;;174.13;84.07;;;;;;;18.36;44.06;93927.91;5004861;28;20033;-85
2023/05/08 09:35:04;;;;;;;159.00;74.57;;;;;;;18.30;43.71;93924.41;5001956;28;20025;-85
2023/05/08 09:37:30;;;;;;;189.63;98.68;;;;;;;18.35;44.13;93931.88;5000442;28;20029;-86
2023/05/08 09:40:16;;;;;;;238.63;100.43;;;;;;;18.38;43.89;93925.41;5005898;28;20417;-85
2023/05/08 09:42:41;;;;;;;197.75;95.65;;;;;;;18.43;44.00;93921.16;5017716;28;20045;-86
2023/05/08 09:45:07;;;;;;;222.18;98.25;;;;;;;18.37;43.93;93929.41;4994991;28;20080;-85
2023/05/08 09:47:32;;;;;;;219.60;97.78;;;;;;;18.37;43.98;93929.41;4987274;28;20030;-86
2023/05/08 09:49:58;;;;;;;228.15;105.30;;;;;;;18.39;43.84;93921.44;5011992;28;20033;-85
2023/05/08 09:52:24;;;;;;;222.40;100.70;;;;;;;18.41;44.65;93927.13;5037980;28;20500;-86
2023/05/08 09:54:58;;;;;;;276.63;108.45;;;;;;;18.43;44.55;93926.63;5013539;28;20033;-85
2023/05/08 09:57:24;;;;;;;218.05;102.47;;;;;;;18.48;44.42;93920.41;5012356;28;20112;-86
2023/05/08 09:59:49;;;;;;;198.15;95.65;;;;;;;18.43;44.68;93918.41;5012712;28;20037;-88
2023/05/08 10:02:16;;;;;;;259.50;110.43;;;;;;;18.47;44.08;93925.16;5012234;28;20041;-85
2023/05/08 10:04:41;;;;;;;237.63;105.20;;;;;;;18.44;44.47;93930.88;5010024;28;20516;-84
2023/05/08 10:07:07;;;;;;;250.82;116.35;;;;;;;18.47;44.49;93916.19;5022765;28;20056;-85
2023/05/08 10:09:32;;;;;;;235.98;113.18;;;;;;;18.44;44.67;93917.19;4993701;28;20052;-85
2023/05/08 10:11:57;;;;;;;214.68;102.07;;;;;;;18.44;44.33;93920.66;5012424;28;20103;-86
2023/05/08 10:14:23;;;;;;;180.02;95.38;;;;;;;18.46;43.87;93922.91;5010099;28;20037;-86
2023/05/08 10:16:52;;;;;;;176.75;86.22;;;;;;;18.41;43.97;93918.91;5010695;28;20037;-84
2023/05/08 10:19:20;;;;;;;155.45;85.30;;;;;;;18.40;44.23;93913.97;4994318;28;20034;-85
2023/05/08 10:21:49;;;;;;;157.45;82.53;;;;;;;18.40;44.16;93919.44;5009951;28;20041;-85
2023/05/08 10:24:18;;;;;;;151.77;82.05;;;;;;;18.40;44.53;93906.47;5011146;28;20049;-85
2023/05/08 10:26:55;;;;;;;181.93;91.95;;;;;;;18.42;44.36;93895.03;5012040;28;20488;-85
2023/05/08 10:29:24;;;;;;;170.57;90.00;;;;;;;18.42;44.28;93897.75;5011631;28;20846;-85
2023/05/08 10:31:50;;;;;;;161.50;82.25;;;;;;;18.41;44.52;93902.50;4992039;28;20041;-85
2023/05/08 10:34:18;;;;;;;166.65;84.07;;;;;;;18.42;44.32;93903.25;5007663;28;20037;-85
2023/05/08 10:36:45;;;;;;;156.43;85.93;;;;;;;18.42;44.55;93893.03;5011490;28;20050;-85
2023/05/08 10:39:11;;;;;;;153.60;85.60;;;;;;;18.44;44.52;93895.28;5026923;28;20080;-85
2023/05/08 10:41:36;;;;;;;159.07;86.30;;;;;;;18.45;44.26;93896.78;5011126;28;20038;-85
2023/05/08 10:44:02;;;;;;;169.65;84.50;;;;;;;18.51;44.32;93897.53;5022552;28;20041;-85
2023/05/08 10:46:44;;;;;;;157.48;80.70;;;;;;;18.48;44.97;93896.53;5013181;28;20044;-84
2023/05/08 10:49:32;;;;;;;128.70;77.97;;;;;;;18.50;45.03;93890.56;4991255;28;20512;-85
2023/05/08 10:52:03;;;;;;;144.88;84.30;;;;;;;18.50;44.86;93887.81;5012588;28;20128;-85
2023/05/08 10:54:47;;;;;;;144.88;79.55;;;;;;;18.48;44.54;93880.09;5026430;28;20042;-85
2023/05/08 10:57:13;;;;;;;128.13;75.18;;;;;;;18.52;44.85;93876.38;5027143;28;20045;-85
2023/05/08 10:59:38;;;;;;;107.95;62.72;;;;;;;18.45;44.21;93880.34;4995541;28;20087;-85
2023/05/08 11:02:05;;;;;;;86.80;48.38;;;;;;;18.36;44.15;93878.63;5016608;28;20033;-85
2023/05/08 11:04:32;;;;;;;107.20;53.97;;;;;;;18.28;43.94;93871.41;5028357;28;20725;-84
2023/05/08 11:06:58;;;;;;;102.28;49.78;;;;;;;18.38;43.73;93881.63;5006920;28;20046;-83
2023/05/08 11:09:41;;;;;;;124.65;55.15;;;;;;;18.34;44.35;93878.38;5010255;28;20057;-85
2023/05/08 11:12:24;;;;;;;106.45;52.10;;;;;;;18.35;44.33;93877.13;5027572;28;20041;-86
2023/05/08 11:15:04;;;;;;;125.22;60.53;;;;;;;18.39;44.09;93872.16;5005574;28;20044;-84
2023/05/08 11:17:30;;;;;;;126.03;63.83;;;;;;;18.40;43.97;93875.66;4992269;28;20030;-85
2023/05/08 11:19:57;;;;;;;163.77;87.47;;;;;;;18.41;44.54;93875.13;5005835;28;20302;-87